createdAt,value
2023-03-26T00:00:17.842Z,100490.78
2023-03-26T00:02:19.398Z,100495.19
2023-03-26T00:04:21.884Z,100489.97
2023-03-26T00:06:29.269Z,100489.06
2023-03-26T00:08:31.011Z,100489.06
2023-03-26T00:10:33.187Z,100500.41
2023-03-26T00:12:34.688Z,100499.53
2023-03-26T00:14:36.247Z,100505.69
2023-03-26T00:16:37.720Z,100491.69
2023-03-26T00:18:40.491Z,100510.13
2023-03-26T00:20:41.977Z,100512.75
2023-03-26T00:22:43.423Z,100515.31
2023-03-26T00:24:47.434Z,100514.47
2023-03-26T00:26:53.493Z,100522.38
2023-03-26T00:28:55.111Z,100521.47
2023-03-26T00:31:02.901Z,100523.19
2023-03-26T00:33:04.515Z,100535.47
2023-03-26T00:35:06.475Z,100524.09
2023-03-26T00:37:08.866Z,100523.22
2023-03-26T00:39:10.358Z,100535.50
2023-03-26T00:41:25.468Z,100530.28
2023-03-26T00:43:27.008Z,100538.97
2023-03-26T00:45:28.906Z,100537.31
2023-03-26T00:47:30.909Z,100537.34
2023-03-26T00:49:32.532Z,100542.66
2023-03-26T00:51:34.691Z,100541.81
2023-03-26T00:53:38.850Z,100543.63
2023-03-26T00:55:41.664Z,100544.56
2023-03-26T00:57:46.032Z,100541.09
2023-03-26T00:59:50.848Z,100535.84
2023-03-26T01:01:55.007Z,100537.72
2023-03-26T01:04:08.839Z,100532.56
2023-03-26T01:06:27.811Z,100541.41
2023-03-26T01:08:44.970Z,100538.00
2023-03-26T01:10:50.915Z,100543.28
2023-03-26T01:12:52.632Z,100542.41
2023-03-26T01:15:00.653Z,100538.09
2023-03-26T01:17:04.549Z,100545.13
2023-03-26T01:19:21.186Z,100550.41
2023-03-26T01:21:29.945Z,100549.56
2023-03-26T01:23:37.479Z,100546.13
2023-03-26T01:25:46.114Z,100546.13
2023-03-26T01:27:54.226Z,100550.50
2023-03-26T01:30:17.784Z,100544.41
2023-03-26T01:32:47.589Z,100547.94
2023-03-26T01:35:04.642Z,100547.06
2023-03-26T01:37:16.408Z,100547.97
2023-03-26T01:39:40.459Z,100541.88
2023-03-26T01:41:48.975Z,100541.84
2023-03-26T01:44:23.885Z,100536.56
2023-03-26T01:46:26.620Z,100533.91
2023-03-26T01:48:31.663Z,100537.38
2023-03-26T01:50:33.935Z,100535.59
2023-03-26T01:52:35.683Z,100539.06
2023-03-26T01:54:37.164Z,100538.09
2023-03-26T01:57:09.874Z,100542.41
2023-03-26T01:59:20.357Z,100541.50
2023-03-26T02:01:36.632Z,100549.34
2023-03-26T02:03:51.142Z,100546.66
2023-03-26T02:06:15.710Z,100548.31
2023-03-26T02:08:35.550Z,100551.78
2023-03-26T02:10:44.136Z,100552.63
2023-03-26T02:12:46.039Z,100543.88
2023-03-26T02:14:47.971Z,100534.22
2023-03-26T02:18:55.580Z,100540.38
2023-03-26T02:20:57.094Z,100543.00
2023-03-26T02:22:59.798Z,100541.28
2023-03-26T02:25:01.389Z,100536.06
2023-03-26T02:27:03.090Z,100532.56
2023-03-26T02:29:04.790Z,100531.72
2023-03-26T02:31:09.704Z,100536.09
2023-03-26T02:33:15.261Z,100519.47
2023-03-26T02:35:16.887Z,100522.13
2023-03-26T02:37:19.126Z,100523.94
2023-03-26T02:39:20.880Z,100525.69
2023-03-26T02:41:22.424Z,100521.34
2023-03-26T02:43:23.995Z,100515.25
2023-03-26T02:45:25.597Z,100514.34
2023-03-26T02:47:27.208Z,100511.72
2023-03-26T02:49:28.963Z,100519.59
2023-03-26T02:51:35.254Z,100509.09
2023-03-26T02:53:37.582Z,100516.97
2023-03-26T02:55:39.376Z,100517.88
2023-03-26T02:57:41.285Z,100520.47
2023-03-26T02:59:42.782Z,100514.34
2023-03-26T03:01:44.244Z,100518.72
2023-03-26T03:03:47.495Z,100516.97
2023-03-26T03:05:48.934Z,100509.97
2023-03-26T03:07:50.373Z,100511.72
2023-03-26T03:09:51.848Z,100503.84
2023-03-26T03:11:53.363Z,100509.97
2023-03-26T03:13:54.834Z,100511.66
2023-03-26T03:15:56.647Z,100503.78
2023-03-26T03:17:58.355Z,100503.81
2023-03-26T03:20:00.330Z,100503.81
2023-03-26T03:22:01.831Z,100509.03
2023-03-26T03:24:03.732Z,100513.44
2023-03-26T03:26:06.732Z,100505.59
2023-03-26T03:28:08.949Z,100510.81
2023-03-26T03:30:12.775Z,100507.28
2023-03-26T03:32:14.223Z,100511.66
2023-03-26T03:34:15.909Z,100511.63
2023-03-26T03:36:22.051Z,100512.53
2023-03-26T03:38:23.551Z,100516.03
2023-03-26T03:40:25.589Z,100509.03
2023-03-26T03:42:29.920Z,100518.69
2023-03-26T03:44:31.379Z,100509.03
2023-03-26T03:46:32.886Z,100510.84
2023-03-26T03:48:38.134Z,100517.00
2023-03-26T03:50:39.617Z,100521.41
2023-03-26T03:52:41.073Z,100514.41
2023-03-26T03:54:42.541Z,100515.31
2023-03-26T03:56:45.745Z,100518.78
2023-03-26T03:58:47.444Z,100516.16
2023-03-26T04:00:52.739Z,100515.31
2023-03-26T04:02:54.590Z,100517.09
2023-03-26T04:05:00.025Z,100521.47
2023-03-26T04:07:01.579Z,100520.59
2023-03-26T04:09:03.060Z,100519.75
2023-03-26T04:11:04.975Z,100511.03
2023-03-26T04:13:06.443Z,100506.69
2023-03-26T04:15:08.071Z,100511.94
2023-03-26T04:17:10.222Z,100505.84
2023-03-26T04:19:11.699Z,100513.75
2023-03-26T04:21:15.885Z,100507.63
2023-03-26T04:23:18.800Z,100510.31
2023-03-26T04:25:21.383Z,100503.31
2023-03-26T04:27:28.436Z,100503.31
2023-03-26T04:29:34.610Z,100505.09
2023-03-26T04:31:36.340Z,100505.13
2023-03-26T04:33:41.436Z,100509.53
2023-03-26T04:35:44.744Z,100504.31
2023-03-26T04:37:46.903Z,100507.81
2023-03-26T04:39:48.361Z,100498.25
2023-03-26T04:41:49.838Z,100493.91
2023-03-26T04:43:51.283Z,100495.66
2023-03-26T04:45:53.796Z,100493.94
2023-03-26T04:47:55.951Z,100498.31
2023-03-26T04:49:57.534Z,100496.59
2023-03-26T04:51:59.730Z,100500.97
2023-03-26T04:54:02.605Z,100499.28
2023-03-26T04:56:13.497Z,100496.72
2023-03-26T04:58:15.661Z,100501.13
2023-03-26T05:00:19.023Z,100503.78
2023-03-26T05:02:20.618Z,100501.16
2023-03-26T05:04:22.232Z,100502.06
2023-03-26T05:06:25.938Z,100516.09
2023-03-26T05:08:28.853Z,100509.97
2023-03-26T05:10:30.385Z,100502.19
2023-03-26T05:12:31.861Z,100509.22
2023-03-26T05:14:33.536Z,100506.63
2023-03-26T05:16:36.179Z,100512.78
2023-03-26T05:18:37.704Z,100504.91
2023-03-26T05:20:39.304Z,100506.66
2023-03-26T05:22:40.861Z,100504.94
2023-03-26T05:24:42.323Z,100509.31
2023-03-26T05:26:43.845Z,100511.06
2023-03-26T05:28:45.489Z,100514.53
2023-03-26T05:30:47.029Z,100510.19
2023-03-26T05:32:49.500Z,100514.56
2023-03-26T05:34:51.022Z,100510.16
2023-03-26T05:36:53.004Z,100518.03
2023-03-26T05:38:54.559Z,100511.94
2023-03-26T05:41:00.818Z,100509.34
2023-03-26T05:43:02.888Z,100511.97
2023-03-26T05:45:06.355Z,100516.34
2023-03-26T05:47:07.825Z,100511.06
2023-03-26T05:49:09.296Z,100516.28
2023-03-26T05:51:12.337Z,100525.03
2023-03-26T05:53:13.827Z,100521.50
2023-03-26T05:55:16.056Z,100515.34
2023-03-26T05:57:18.718Z,100514.47
2023-03-26T05:59:20.275Z,100520.56
2023-03-26T06:01:22.650Z,100514.44
2023-03-26T06:03:25.048Z,100509.22
2023-03-26T06:05:26.882Z,100510.09
2023-03-26T06:07:28.670Z,100508.38
2023-03-26T06:09:30.138Z,100508.31
2023-03-26T06:11:32.116Z,100509.13
2023-03-26T06:13:34.054Z,100499.53
2023-03-26T06:15:35.624Z,100502.13
2023-03-26T06:17:37.151Z,100500.34
2023-03-26T06:19:38.784Z,100495.09
2023-03-26T06:21:40.356Z,100495.09
2023-03-26T06:23:41.818Z,100495.94
2023-03-26T06:25:45.565Z,100496.81
2023-03-26T06:27:47.115Z,100499.44
2023-03-26T06:29:49.062Z,100496.78
2023-03-26T06:31:50.634Z,100490.63
2023-03-26T06:33:53.210Z,100499.38
2023-03-26T06:35:54.813Z,100504.59
2023-03-26T06:37:57.120Z,100506.28
2023-03-26T06:39:58.624Z,100505.38
2023-03-26T06:42:00.258Z,100501.00
2023-03-26T06:44:01.745Z,100506.28
2023-03-26T06:46:04.110Z,100501.03
2023-03-26T06:48:06.142Z,100508.84
2023-03-26T06:50:08.438Z,100502.75
2023-03-26T06:52:09.959Z,100511.47
2023-03-26T06:54:11.422Z,100521.06
2023-03-26T06:56:12.932Z,100516.69
2023-03-26T06:58:14.787Z,100523.63
2023-03-26T07:00:17.167Z,100521.91
2023-03-26T07:02:18.676Z,100516.66
2023-03-26T07:04:20.372Z,100516.66
2023-03-26T07:06:21.919Z,100514.94
2023-03-26T07:08:25.186Z,100515.84
2023-03-26T07:10:27.811Z,100513.22
2023-03-26T07:12:29.320Z,100516.69
2023-03-26T07:14:32.632Z,100510.50
2023-03-26T07:16:34.169Z,100509.66
2023-03-26T07:18:35.727Z,100507.16
2023-03-26T07:20:37.728Z,100508.81
2023-03-26T07:22:39.598Z,100501.78
2023-03-26T07:24:41.462Z,100495.72
2023-03-26T07:26:55.809Z,100507.13
2023-03-26T07:29:08.155Z,100497.53
2023-03-26T07:31:27.156Z,100498.38
2023-03-26T07:33:37.708Z,100496.66
2023-03-26T07:35:48.630Z,100498.38
2023-03-26T07:38:01.160Z,100500.97
2023-03-26T07:40:31.916Z,100499.31
2023-03-26T07:42:58.862Z,100494.19
2023-03-26T07:45:26.021Z,100508.19
2023-03-26T07:47:31.539Z,100495.91
2023-03-26T07:49:34.058Z,100496.66
2023-03-26T07:51:35.874Z,100498.34
2023-03-26T07:53:37.554Z,100493.13
2023-03-26T07:55:50.075Z,100495.78
2023-03-26T07:57:54.623Z,100499.34
2023-03-26T08:00:08.305Z,100499.38
2023-03-26T08:02:28.114Z,100488.88
2023-03-26T08:04:41.722Z,100497.53
2023-03-26T08:06:59.491Z,100499.28
2023-03-26T08:09:16.006Z,100500.16
2023-03-26T08:11:26.503Z,100496.59
2023-03-26T08:13:44.427Z,100494.72
2023-03-26T08:15:58.237Z,100492.78
2023-03-26T08:18:15.991Z,100496.06
2023-03-26T08:20:31.044Z,100489.09
2023-03-26T08:22:41.070Z,100489.06
2023-03-26T08:24:54.968Z,100484.53
2023-03-26T08:27:06.699Z,100493.09
2023-03-26T08:29:32.795Z,100495.53
2023-03-26T08:31:40.019Z,100494.47
2023-03-26T08:33:41.607Z,100495.31
2023-03-26T08:35:44.161Z,100499.56
2023-03-26T08:37:45.669Z,100499.69
2023-03-26T08:39:47.176Z,100504.19
2023-03-26T08:42:18.847Z,100504.28
2023-03-26T08:44:26.341Z,100506.72
2023-03-26T08:46:46.447Z,100507.53
2023-03-26T08:48:47.940Z,100510.06
2023-03-26T08:51:15.280Z,100507.41
2023-03-26T08:53:34.802Z,100507.28
2023-03-26T08:55:48.508Z,100508.88
2023-03-26T08:58:11.852Z,100508.75
2023-03-26T09:00:51.546Z,100508.75
2023-03-26T09:03:19.712Z,100510.59
2023-03-26T09:05:33.682Z,100512.41
2023-03-26T09:07:59.198Z,100511.31
2023-03-26T09:10:41.819Z,100509.28
2023-03-26T09:12:52.328Z,100513.50
2023-03-26T09:15:24.845Z,100521.28
2023-03-26T09:17:29.193Z,100516.25
2023-03-26T09:19:30.651Z,100511.22
2023-03-26T09:21:43.993Z,100519.13
2023-03-26T09:24:03.963Z,100513.66
2023-03-26T09:26:29.806Z,100515.22
2023-03-26T09:28:52.926Z,100520.19
2023-03-26T09:31:03.439Z,100513.06
2023-03-26T09:33:11.643Z,100517.53
2023-03-26T09:35:16.142Z,100517.75
2023-03-26T09:37:23.764Z,100511.91
2023-03-26T09:39:31.299Z,100517.16
2023-03-26T09:41:43.697Z,100524.19
2023-03-26T09:43:48.877Z,100515.53
2023-03-26T09:46:02.585Z,100525.06
2023-03-26T09:48:16.193Z,100518.38
2023-03-26T09:50:42.378Z,100525.41
2023-03-26T09:52:52.231Z,100527.91
2023-03-26T09:55:31.177Z,100527.69
2023-03-26T09:57:45.358Z,100519.75
2023-03-26T10:00:18.226Z,100525.81
2023-03-26T10:02:57.402Z,100525.16
2023-03-26T10:05:04.661Z,100523.28
2023-03-26T10:07:34.847Z,100525.59
2023-03-26T10:10:01.294Z,100525.53
2023-03-26T10:12:31.496Z,100536.13
2023-03-26T10:14:33.226Z,100525.03
2023-03-26T10:16:51.348Z,100527.41
2023-03-26T10:19:30.630Z,100519.84
2023-03-26T10:21:43.443Z,100523.84
2023-03-26T10:23:50.922Z,100520.09
2023-03-26T10:26:06.067Z,100516.34
2023-03-26T10:28:29.505Z,100518.22
2023-03-26T10:31:00.303Z,100514.06
2023-03-26T10:33:08.051Z,100518.38
2023-03-26T10:35:15.388Z,100514.09
2023-03-26T10:37:32.500Z,100509.19
2023-03-26T10:39:42.278Z,100505.06
2023-03-26T10:41:59.255Z,100513.03
2023-03-26T10:44:21.834Z,100510.97
2023-03-26T10:46:57.367Z,100508.59
2023-03-26T10:49:01.063Z,100507.16
2023-03-26T10:51:08.795Z,100502.47
2023-03-26T10:53:29.952Z,100508.03
2023-03-26T10:55:41.578Z,100503.41
2023-03-26T10:57:43.051Z,100509.94
2023-03-26T10:59:44.560Z,100517.06
2023-03-26T11:01:55.109Z,100505.34
2023-03-26T11:04:08.167Z,100506.72
2023-03-26T11:06:30.222Z,100508.97
2023-03-26T11:08:37.469Z,100511.34
2023-03-26T11:11:00.598Z,100514.66
2023-03-26T11:13:34.030Z,100513.50
2023-03-26T11:15:53.230Z,100512.47
2023-03-26T11:18:04.027Z,100514.09
2023-03-26T11:20:20.989Z,100520.00
2023-03-26T11:22:53.134Z,100519.09
2023-03-26T11:25:20.781Z,100527.91
2023-03-26T11:27:49.185Z,100520.91
2023-03-26T11:30:03.048Z,100519.03
2023-03-26T11:32:15.644Z,100520.88
2023-03-26T11:34:22.398Z,100524.00
2023-03-26T11:36:29.794Z,100517.66
2023-03-26T11:38:44.531Z,100516.84
2023-03-26T11:40:51.040Z,100515.97
2023-03-26T11:42:59.135Z,100526.53
2023-03-26T11:45:08.180Z,100519.66
2023-03-26T11:47:15.273Z,100520.63
2023-03-26T11:49:18.943Z,100515.72
2023-03-26T11:51:27.543Z,100515.06
2023-03-26T11:53:34.534Z,100513.19
2023-03-26T11:55:36.523Z,100515.06
2023-03-26T11:57:43.142Z,100514.78
2023-03-26T12:00:17.888Z,100515.94
2023-03-26T12:02:25.616Z,100510.72
2023-03-26T12:04:38.684Z,100506.00
2023-03-26T12:06:51.839Z,100509.06
2023-03-26T12:08:53.286Z,100500.13
2023-03-26T12:11:09.368Z,100506.88
2023-03-26T12:13:36.515Z,100504.13
2023-03-26T12:15:43.683Z,100502.66
2023-03-26T12:17:47.154Z,100505.59
2023-03-26T12:19:48.629Z,100496.38
2023-03-26T12:21:52.828Z,100499.50
2023-03-26T12:24:00.882Z,100496.38
2023-03-26T12:26:14.858Z,100496.09
2023-03-26T12:28:19.163Z,100490.22
2023-03-26T12:30:22.197Z,100501.31
2023-03-26T12:32:32.574Z,100497.25
2023-03-26T12:34:44.878Z,100494.25
2023-03-26T12:36:55.443Z,100494.25
2023-03-26T12:39:17.086Z,100490.94
2023-03-26T12:44:42.121Z,100497.88
2023-03-26T12:44:54.824Z,100488.72
2023-03-26T12:47:59.420Z,100497.44
2023-03-26T12:48:45.436Z,100493.06
2023-03-26T12:51:08.802Z,100502.06
2023-03-26T12:53:34.052Z,100502.53
2023-03-26T12:55:38.506Z,100503.72
2023-03-26T12:58:13.273Z,100508.75
2023-03-26T13:00:33.873Z,100506.84
2023-03-26T13:02:48.835Z,100499.50
2023-03-26T13:05:05.657Z,100505.66
2023-03-26T13:07:34.221Z,100498.06
2023-03-26T13:09:53.252Z,100497.03
2023-03-26T13:12:35.849Z,100496.38
2023-03-26T13:14:52.500Z,100498.78
2023-03-26T13:17:21.004Z,100498.09
2023-03-26T13:19:31.244Z,100492.69
2023-03-26T13:22:00.140Z,100500.59
2023-03-26T13:24:25.756Z,100493.78
2023-03-26T13:26:37.206Z,100497.50
2023-03-26T13:28:52.577Z,100497.28
2023-03-26T13:31:16.989Z,100497.31
2023-03-26T13:33:24.300Z,100495.28
2023-03-26T13:35:49.869Z,100499.09
2023-03-26T13:38:00.517Z,100496.31
2023-03-26T13:40:22.187Z,100498.09
2023-03-26T13:42:50.978Z,100497.50
2023-03-26T13:45:04.382Z,100497.03
2023-03-26T13:47:38.250Z,100488.94
2023-03-26T13:49:55.425Z,100489.91
2023-03-26T13:51:59.424Z,100482.66
2023-03-26T13:54:23.947Z,100489.16
2023-03-26T13:56:36.412Z,100492.31
2023-03-26T13:58:59.860Z,100481.88
2023-03-26T14:01:22.388Z,100493.16
2023-03-26T14:03:56.285Z,100488.72
2023-03-26T14:06:03.685Z,100488.84
2023-03-26T14:08:22.578Z,100491.00
2023-03-26T14:10:30.643Z,100494.00
2023-03-26T14:12:59.886Z,100500.00
2023-03-26T14:15:04.728Z,100500.97
2023-03-26T14:17:21.306Z,100502.91
2023-03-26T14:19:33.674Z,100503.22
2023-03-26T14:21:54.826Z,100507.59
2023-03-26T14:24:12.783Z,100498.13
2023-03-26T14:26:28.858Z,100494.72
2023-03-26T14:28:48.006Z,100493.50
2023-03-26T14:31:23.167Z,100502.16
2023-03-26T14:33:49.663Z,100506.78
2023-03-26T14:35:54.235Z,100511.28
2023-03-26T14:37:57.402Z,100514.13
2023-03-26T14:40:16.955Z,100511.09
2023-03-26T14:42:53.412Z,100518.72
2023-03-26T14:45:21.178Z,100515.97
2023-03-26T14:47:24.929Z,100516.50
2023-03-26T14:49:46.384Z,100514.16
2023-03-26T14:51:55.060Z,100519.09
2023-03-26T14:54:02.720Z,100521.50
2023-03-26T14:56:48.773Z,100524.09
2023-03-26T14:59:11.728Z,100528.78
2023-03-26T15:01:25.419Z,100527.00
2023-03-26T15:04:00.753Z,100526.34
2023-03-26T15:06:21.118Z,100530.16
2023-03-26T15:08:58.383Z,100527.19
2023-03-26T15:11:44.949Z,100525.00
2023-03-26T15:14:19.776Z,100530.72
2023-03-26T15:16:32.749Z,100533.38
2023-03-26T15:18:58.876Z,100537.09
2023-03-26T15:21:00.273Z,100532.56
2023-03-26T15:23:20.012Z,100537.25
2023-03-26T15:25:52.336Z,100542.38
2023-03-26T15:28:17.452Z,100540.63
2023-03-26T15:30:53.872Z,100544.06
2023-03-26T15:33:22.696Z,100554.59
2023-03-26T15:35:41.428Z,100552.09
2023-03-26T15:38:18.013Z,100554.13
2023-03-26T15:40:38.172Z,100545.63
2023-03-26T15:42:57.979Z,100566.19
2023-03-26T15:45:22.348Z,100559.41
2023-03-26T15:47:36.088Z,100562.56
2023-03-26T15:49:43.950Z,100562.22
2023-03-26T15:52:06.326Z,100567.69
2023-03-26T15:54:28.895Z,100560.75
2023-03-26T15:56:57.924Z,100574.31
2023-03-26T15:59:17.967Z,100575.97
2023-03-26T16:01:50.757Z,100574.38
2023-03-26T16:04:11.676Z,100573.41
2023-03-26T16:06:30.846Z,100578.09
2023-03-26T16:08:54.765Z,100592.63
2023-03-26T16:10:59.033Z,100582.38
2023-03-26T16:13:19.425Z,100584.66
2023-03-26T16:15:33.296Z,100580.88
2023-03-26T16:18:05.941Z,100583.63
2023-03-26T16:20:23.301Z,100596.88
2023-03-26T16:22:52.051Z,100592.63
2023-03-26T16:25:27.249Z,100596.84
2023-03-26T16:27:33.972Z,100587.72
2023-03-26T16:30:00.194Z,100597.28
2023-03-26T16:32:11.239Z,100603.19
2023-03-26T16:34:27.129Z,100606.69
2023-03-26T16:36:34.631Z,100615.97
2023-03-26T16:39:04.979Z,100610.38
2023-03-26T16:41:17.629Z,100608.91
2023-03-26T16:43:53.096Z,100611.63
2023-03-26T16:46:00.444Z,100617.41
2023-03-26T16:48:05.184Z,100617.09
2023-03-26T16:50:26.002Z,100624.34
2023-03-26T16:52:42.791Z,100627.00
2023-03-26T16:55:08.596Z,100629.13
2023-03-26T16:57:23.022Z,100634.25
2023-03-26T17:00:05.279Z,100643.41
2023-03-26T17:02:26.614Z,100643.81
2023-03-26T17:04:30.571Z,100643.88
2023-03-26T17:07:08.750Z,100650.97
2023-03-26T17:09:24.640Z,100653.88
2023-03-26T17:11:36.178Z,100656.72
2023-03-26T17:13:40.807Z,100660.44
2023-03-26T17:16:04.781Z,100658.81
2023-03-26T17:18:18.214Z,100659.72
2023-03-26T17:20:40.847Z,100668.41
2023-03-26T17:22:44.815Z,100673.59
2023-03-26T17:24:58.514Z,100680.59
2023-03-26T17:27:20.309Z,100678.00
2023-03-26T17:29:32.264Z,100679.84
2023-03-26T17:31:51.013Z,100679.84
2023-03-26T17:33:53.527Z,100695.47
2023-03-26T17:36:39.875Z,100694.63
2023-03-26T17:38:47.274Z,100705.31
2023-03-26T17:40:50.941Z,100707.09
2023-03-26T17:43:07.769Z,100701.28
2023-03-26T17:45:17.666Z,100708.16
2023-03-26T17:47:21.855Z,100716.13
2023-03-26T17:49:31.887Z,100719.75
2023-03-26T17:51:58.788Z,100718.84
2023-03-26T17:54:00.915Z,100720.56
2023-03-26T17:56:06.513Z,100731.09
2023-03-26T17:58:23.538Z,100731.16
2023-03-26T18:00:51.429Z,100730.41
2023-03-26T18:02:57.803Z,100736.84
2023-03-26T18:05:00.853Z,100739.34
2023-03-26T18:07:25.278Z,100746.34
2023-03-26T18:09:57.817Z,100742.88
2023-03-26T18:12:08.031Z,100753.47
2023-03-26T18:14:15.484Z,100759.56
2023-03-26T18:16:20.993Z,100759.75
2023-03-26T18:18:31.333Z,100761.44
2023-03-26T18:20:37.142Z,100769.31
2023-03-26T18:22:38.856Z,100770.16
2023-03-26T18:24:42.167Z,100777.19
2023-03-26T18:26:46.823Z,100774.59
2023-03-26T18:28:54.302Z,100770.34
2023-03-26T18:30:56.019Z,100786.00
2023-03-26T18:33:03.132Z,100784.22
2023-03-26T18:35:20.270Z,100779.09
2023-03-26T18:37:31.790Z,100787.97
2023-03-26T18:39:33.428Z,100793.16
2023-03-26T18:41:43.031Z,100797.53
2023-03-26T18:43:44.881Z,100792.38
2023-03-26T18:45:50.532Z,100795.94
2023-03-26T18:48:10.017Z,100798.59
2023-03-26T18:50:16.998Z,100809.03
2023-03-26T18:52:20.304Z,100806.41
2023-03-26T18:54:21.934Z,100808.19
2023-03-26T18:56:37.153Z,100811.75
2023-03-26T18:58:40.000Z,100809.09
2023-03-26T19:00:42.704Z,100815.28
2023-03-26T19:02:46.115Z,100812.69
2023-03-26T19:04:49.529Z,100817.03
2023-03-26T19:06:55.052Z,100819.63
2023-03-26T19:08:57.958Z,100831.00
2023-03-26T19:11:04.796Z,100823.19
2023-03-26T19:13:13.252Z,100835.41
2023-03-26T19:15:17.043Z,100832.75
2023-03-26T19:17:18.726Z,100829.34
2023-03-26T19:19:23.110Z,100833.69
2023-03-26T19:21:25.429Z,100829.34
2023-03-26T19:23:32.243Z,100830.28
2023-03-26T19:25:42.069Z,100832.91
2023-03-26T19:27:43.875Z,100832.00
2023-03-26T19:29:46.699Z,100839.88
2023-03-26T19:31:52.436Z,100839.84
2023-03-26T19:33:59.285Z,100845.09
2023-03-26T19:36:12.893Z,100847.69
2023-03-26T19:38:27.374Z,100845.09
2023-03-26T19:40:33.676Z,100849.47
2023-03-26T19:42:43.240Z,100849.47
2023-03-26T19:44:46.146Z,100853.84
2023-03-26T19:46:53.624Z,100855.59
2023-03-26T19:48:57.614Z,100848.63
2023-03-26T19:51:05.363Z,100860.84
2023-03-26T19:53:17.759Z,100864.34
2023-03-26T19:55:24.247Z,100862.59
2023-03-26T19:57:25.729Z,100860.00
2023-03-26T19:59:27.265Z,100872.19
2023-03-26T20:01:30.673Z,100859.97
2023-03-26T20:03:42.223Z,100873.06
2023-03-26T20:05:43.747Z,100873.97
2023-03-26T20:07:45.564Z,100874.03
2023-03-26T20:09:47.021Z,100879.22
2023-03-26T20:11:54.215Z,100880.97
2023-03-26T20:13:55.677Z,100876.63
2023-03-26T20:16:22.996Z,100878.34
2023-03-26T20:18:25.654Z,100880.97
2023-03-26T20:20:27.617Z,100887.06
2023-03-26T20:22:29.363Z,100896.66
2023-03-26T20:24:32.455Z,100893.19
2023-03-26T20:26:34.012Z,100893.19
2023-03-26T20:28:42.449Z,100898.44
2023-03-26T20:30:51.026Z,100903.66
2023-03-26T20:33:12.184Z,100900.16
2023-03-26T20:35:19.314Z,100915.84
2023-03-26T20:37:38.214Z,100912.38
2023-03-26T20:39:39.725Z,100915.88
2023-03-26T20:41:47.136Z,100916.75
2023-03-26T20:43:52.238Z,100918.44
2023-03-26T20:45:54.177Z,100921.06
2023-03-26T20:47:55.921Z,100931.53
2023-03-26T20:49:57.443Z,100925.44
2023-03-26T20:52:00.099Z,100933.28
2023-03-26T20:54:01.963Z,100928.94
2023-03-26T20:56:03.698Z,100934.16
2023-03-26T20:58:05.145Z,100940.25
2023-03-26T21:00:37.297Z,100944.59
2023-03-26T21:02:40.586Z,100942.84
2023-03-26T21:04:43.818Z,100942.00
2023-03-26T21:06:45.751Z,100945.47
2023-03-26T21:08:47.440Z,100943.75
2023-03-26T21:10:49.763Z,100948.09
2023-03-26T21:13:10.626Z,100954.19
2023-03-26T21:15:20.836Z,100953.31
2023-03-26T21:17:25.134Z,100956.81
2023-03-26T21:19:27.280Z,100957.69
2023-03-26T21:22:00.208Z,100960.28
2023-03-26T21:24:20.729Z,100961.16
2023-03-26T21:26:27.820Z,100965.50
2023-03-26T21:28:41.992Z,100963.75
2023-03-26T21:30:44.424Z,100970.72
2023-03-26T21:32:46.504Z,100973.34
2023-03-26T21:34:58.058Z,100983.78
2023-03-26T21:37:01.588Z,100993.31
2023-03-26T21:39:04.829Z,100999.47
2023-03-26T21:41:06.787Z,100994.19
2023-03-26T21:43:11.632Z,101003.78
2023-03-26T21:45:13.704Z,101006.38
2023-03-26T21:47:15.372Z,101005.50
2023-03-26T21:49:17.770Z,101011.59
2023-03-26T21:51:19.548Z,101015.94
2023-03-26T21:53:22.354Z,101016.81
2023-03-26T21:55:24.521Z,101018.56
2023-03-26T21:57:52.338Z,101026.41
2023-03-26T21:59:53.796Z,101021.19
2023-03-26T22:02:04.874Z,101029.00
2023-03-26T22:04:15.021Z,101034.22
2023-03-26T22:06:42.965Z,101031.63
2023-03-26T22:08:44.894Z,101028.13
2023-03-26T22:10:47.496Z,101040.28
2023-03-26T22:12:49.574Z,101050.75
2023-03-26T22:14:52.354Z,101045.53
2023-03-26T22:16:53.895Z,101048.13
2023-03-26T22:18:55.395Z,101050.75
2023-03-26T22:20:59.115Z,101055.94
2023-03-26T22:23:01.826Z,101056.84
2023-03-26T22:25:03.411Z,101067.28
2023-03-26T22:27:04.882Z,101069.03
2023-03-26T22:29:06.511Z,101064.66
2023-03-26T22:31:09.043Z,101075.97
2023-03-26T22:33:12.055Z,101073.38
2023-03-26T22:35:14.408Z,101081.19
2023-03-26T22:37:16.210Z,101089.00
2023-03-26T22:39:18.272Z,101089.88
2023-03-26T22:41:19.825Z,101092.47
2023-03-26T22:43:21.285Z,101092.47
2023-03-26T22:45:23.527Z,101097.69
2023-03-26T22:47:25.012Z,101098.53
2023-03-26T22:49:27.442Z,101095.06
2023-03-26T22:51:29.782Z,101105.50
2023-03-26T22:53:31.671Z,101110.72
2023-03-26T22:55:33.572Z,101111.59
2023-03-26T22:57:35.065Z,101111.59
2023-03-26T22:59:36.720Z,101120.28
2023-03-26T23:01:38.228Z,101119.34
2023-03-26T23:03:39.938Z,101119.34
2023-03-26T23:05:41.398Z,101119.34
2023-03-26T23:07:43.527Z,101124.56
2023-03-26T23:09:45.657Z,101125.44
2023-03-26T23:11:47.303Z,101129.78
2023-03-26T23:13:49.477Z,101134.09
2023-03-26T23:15:55.402Z,101135.84
2023-03-26T23:17:58.695Z,101144.53
2023-03-26T23:20:00.667Z,101144.53
2023-03-26T23:22:02.207Z,101142.75
2023-03-26T23:24:04.621Z,101151.47
2023-03-26T23:26:06.922Z,101153.19
2023-03-26T23:28:08.454Z,101154.91
2023-03-26T23:30:10.971Z,101163.59
2023-03-26T23:32:23.372Z,101167.94
2023-03-26T23:34:26.312Z,101163.59
2023-03-26T23:36:27.830Z,101167.94
2023-03-26T23:38:44.169Z,101170.53
2023-03-26T23:40:57.296Z,101171.38
2023-03-26T23:42:58.978Z,101171.41
2023-03-26T23:45:01.111Z,101170.50
2023-03-26T23:47:02.598Z,101171.31
2023-03-26T23:49:04.094Z,101178.19
2023-03-26T23:51:06.811Z,101176.41
2023-03-26T23:53:08.509Z,101178.09
2023-03-26T23:55:10.049Z,101183.31
2023-03-26T23:57:11.832Z,101191.09
2023-03-26T23:59:13.708Z,101199.78
